This is the latest recevied weather packets stored in our database for station/object SR9WXZ. If no packets are shown the sender has not sent any weather packets the latest 1 day(s).
| Time | Temp. | Humidity | Pressure | Rain* | Wind** | Luminosity | Snow |
|---|---|---|---|---|---|---|---|
| 1836274276 | 9.44° C | 100% | 0 hPa | - | 0.45 m/s, 182° | - | - |
| 1836274127 | 10° C | 100% | 0 hPa | - | 0.45 m/s, 196° | - | - |
| 1778033790 | 16.67° C | 100% | 0 hPa | - | 3.58 m/s, 151° | - | - |
| 1778033490 | 16.67° C | 100% | 0 hPa | - | 3.58 m/s, 154° | - | - |
| 1778033190 | 16.11° C | 100% | 0 hPa | - | 3.13 m/s, 152° | - | - |
| 1778032889 | 16.67° C | 100% | 0 hPa | - | 3.13 m/s, 152° | - | - |
| 1778032589 | 16.11° C | 100% | 0 hPa | - | 2.68 m/s, 150° | - | - |
| 1778032289 | 16.11° C | 100% | 0 hPa | - | 2.68 m/s, 145° | - | - |
| 1778031685 | 16.11° C | 100% | 0 hPa | - | 1.34 m/s, 186° | - | - |
| 1778031385 | 16.11° C | 100% | 0 hPa | - | 1.79 m/s, 174° | - | - |
| 1778031085 | 16.11° C | 100% | 0 hPa | - | 0.89 m/s, 183° | - | - |
| 1778030785 | 16.11° C | 100% | 0 hPa | - | 1.34 m/s, 174° | - | - |
| 1778030485 | 16.11° C | 100% | 0 hPa | - | 1.34 m/s, 179° | - | - |
| 1778030184 | 16.11° C | 100% | 0 hPa | - | 0.89 m/s, 157° | - | - |
| 1778029884 | 16.67° C | 100% | 0 hPa | - | 0.89 m/s, 161° | - | - |
| 1778029584 | 16.11° C | 100% | 0 hPa | - | 0.89 m/s, 214° | - | - |
| 1778029284 | 16.67° C | 100% | 0 hPa | - | 0.89 m/s, 214° | - | - |
| 1778028984 | 16.67° C | 100% | 0 hPa | - | 0.89 m/s, 204° | - | - |
| 1778028684 | 16.67° C | 100% | 0 hPa | - | 0.89 m/s, 188° | - | - |
| 1778028380 | 16.11° C | 100% | 0 hPa | - | 0.89 m/s, 229° | - | - |
| 1778028080 | 15.56° C | 100% | 0 hPa | - | 0.89 m/s, 113° | - | - |
| 1778027779 | 15° C | 100% | 0 hPa | - | 0.89 m/s, 102° | - | - |
| 1778027479 | 14.44° C | 100% | 0 hPa | - | 1.34 m/s, 90° | - | - |
| 1778027179 | 15.56° C | 100% | 0 hPa | - | 0.89 m/s, 146° | - | - |
| 1778026878 | 15° C | 100% | 0 hPa | - | 0.89 m/s, 173° | - | - |
* Rain since midnight (hover to see other rain measurements)
** Current wind speed in m/s (hover to see current wind gust speed)